sensor_id;sensor_type;location;lat;lon;timestamp;pressure;altitude;pressure_sealevel;temperature;humidity
74958;BME280;63741;42.624;26.276;2023-09-19T00:00:35;100112.56;;;17.47;63.31
74958;BME280;63741;42.624;26.276;2023-09-19T00:03:02;100099.56;;;17.52;64.05
74958;BME280;63741;42.624;26.276;2023-09-19T00:05:35;100106.97;;;17.40;64.34
74958;BME280;63741;42.624;26.276;2023-09-19T00:08:02;100108.28;;;17.54;64.11
74958;BME280;63741;42.624;26.276;2023-09-19T00:10:32;100111.25;;;17.33;64.70
74958;BME280;63741;42.624;26.276;2023-09-19T00:13:03;100113.84;;;17.43;64.78
74958;BME280;63741;42.624;26.276;2023-09-19T00:15:42;100107.09;;;17.21;65.48
74958;BME280;63741;42.624;26.276;2023-09-19T00:18:09;100102.94;;;17.09;67.13
74958;BME280;63741;42.624;26.276;2023-09-19T00:20:37;100111.78;;;17.19;65.85
74958;BME280;63741;42.624;26.276;2023-09-19T00:23:05;100111.25;;;17.33;65.61
74958;BME280;63741;42.624;26.276;2023-09-19T00:25:32;100112.25;;;17.32;66.05
74958;BME280;63741;42.624;26.276;2023-09-19T00:27:59;100097.34;;;17.48;64.85
74958;BME280;63741;42.624;26.276;2023-09-19T00:30:27;100112.31;;;17.40;65.75
74958;BME280;63741;42.624;26.276;2023-09-19T00:32:53;100110.28;;;17.52;65.52
74958;BME280;63741;42.624;26.276;2023-09-19T00:35:22;100103.38;;;17.50;65.56
74958;BME280;63741;42.624;26.276;2023-09-19T00:37:53;100104.63;;;17.10;67.55
74958;BME280;63741;42.624;26.276;2023-09-19T00:40:20;100108.84;;;17.12;67.43
74958;BME280;63741;42.624;26.276;2023-09-19T00:42:48;100105.00;;;16.97;67.88
74958;BME280;63741;42.624;26.276;2023-09-19T00:45:17;100100.69;;;17.32;67.56
74958;BME280;63741;42.624;26.276;2023-09-19T00:47:47;100107.03;;;17.31;67.42
74958;BME280;63741;42.624;26.276;2023-09-19T00:50:19;100102.84;;;17.28;67.06
74958;BME280;63741;42.624;26.276;2023-09-19T00:52:50;100097.66;;;17.44;66.61
74958;BME280;63741;42.624;26.276;2023-09-19T00:55:20;100103.63;;;17.56;66.37
74958;BME280;63741;42.624;26.276;2023-09-19T00:57:47;100103.44;;;17.40;66.85
74958;BME280;63741;42.624;26.276;2023-09-19T01:00:17;100098.25;;;17.38;66.78
74958;BME280;63741;42.624;26.276;2023-09-19T01:02:46;100107.56;;;17.16;67.77
74958;BME280;63741;42.624;26.276;2023-09-19T01:05:14;100106.16;;;17.12;67.64
74958;BME280;63741;42.624;26.276;2023-09-19T01:07:41;100111.19;;;16.98;68.89
74958;BME280;63741;42.624;26.276;2023-09-19T01:10:11;100113.22;;;17.31;67.88
74958;BME280;63741;42.624;26.276;2023-09-19T01:16:06;100100.53;;;16.88;69.15
74958;BME280;63741;42.624;26.276;2023-09-19T01:18:51;100111.75;;;16.91;68.51
74958;BME280;63741;42.624;26.276;2023-09-19T01:21:26;100096.91;;;16.79;68.88
74958;BME280;63741;42.624;26.276;2023-09-19T01:24:54;100103.88;;;16.90;68.29
74958;BME280;63741;42.624;26.276;2023-09-19T01:30:14;100104.88;;;16.89;67.75
74958;BME280;63741;42.624;26.276;2023-09-19T01:32:42;100096.47;;;16.84;67.58
74958;BME280;63741;42.624;26.276;2023-09-19T01:35:10;100096.38;;;17.03;67.29
74958;BME280;63741;42.624;26.276;2023-09-19T01:37:40;100104.34;;;16.85;67.42
74958;BME280;63741;42.624;26.276;2023-09-19T01:40:16;100094.78;;;17.10;66.81
74958;BME280;63741;42.624;26.276;2023-09-19T01:42:57;100093.25;;;17.08;67.16
74958;BME280;63741;42.624;26.276;2023-09-19T01:45:50;100092.97;;;17.11;67.37
74958;BME280;63741;42.624;26.276;2023-09-19T01:48:40;100097.09;;;16.96;66.95
74958;BME280;63741;42.624;26.276;2023-09-19T01:51:10;100094.41;;;16.68;67.80
74958;BME280;63741;42.624;26.276;2023-09-19T01:54:00;100095.47;;;16.85;66.83
74958;BME280;63741;42.624;26.276;2023-09-19T01:56:34;100092.16;;;16.63;68.50
74958;BME280;63741;42.624;26.276;2023-09-19T01:59:07;100091.94;;;16.47;68.77
74958;BME280;63741;42.624;26.276;2023-09-19T02:01:37;100093.44;;;16.59;68.36
74958;BME280;63741;42.624;26.276;2023-09-19T02:04:05;100092.72;;;16.67;67.30
74958;BME280;63741;42.624;26.276;2023-09-19T02:06:32;100097.88;;;16.78;67.96
74958;BME280;63741;42.624;26.276;2023-09-19T02:09:00;100093.28;;;16.71;68.01
74958;BME280;63741;42.624;26.276;2023-09-19T02:11:27;100092.66;;;16.49;69.16
74958;BME280;63741;42.624;26.276;2023-09-19T02:13:55;100096.66;;;16.63;69.26
74958;BME280;63741;42.624;26.276;2023-09-19T02:16:22;100084.25;;;16.25;69.85
74958;BME280;63741;42.624;26.276;2023-09-19T02:18:49;100094.88;;;16.54;69.50
74958;BME280;63741;42.624;26.276;2023-09-19T02:21:19;100090.84;;;16.40;69.39
74958;BME280;63741;42.624;26.276;2023-09-19T02:23:48;100093.97;;;16.26;70.25
74958;BME280;63741;42.624;26.276;2023-09-19T02:26:15;100086.81;;;16.26;70.88
74958;BME280;63741;42.624;26.276;2023-09-19T02:28:42;100081.59;;;16.34;70.38
74958;BME280;63741;42.624;26.276;2023-09-19T02:31:09;100075.94;;;16.37;69.56
74958;BME280;63741;42.624;26.276;2023-09-19T02:33:37;100072.78;;;16.61;68.64
74958;BME280;63741;42.624;26.276;2023-09-19T02:36:05;100076.22;;;16.44;68.40
74958;BME280;63741;42.624;26.276;2023-09-19T02:38:32;100075.97;;;16.28;68.96
74958;BME280;63741;42.624;26.276;2023-09-19T02:40:59;100076.28;;;16.62;67.83
74958;BME280;63741;42.624;26.276;2023-09-19T02:43:27;100072.34;;;16.56;68.39
74958;BME280;63741;42.624;26.276;2023-09-19T02:45:54;100069.94;;;16.35;68.87
74958;BME280;63741;42.624;26.276;2023-09-19T02:48:21;100076.34;;;15.86;70.80
74958;BME280;63741;42.624;26.276;2023-09-19T02:50:52;100074.03;;;16.30;69.58
74958;BME280;63741;42.624;26.276;2023-09-19T02:53:19;100070.66;;;16.18;69.71
74958;BME280;63741;42.624;26.276;2023-09-19T02:55:49;100068.13;;;16.26;69.24
74958;BME280;63741;42.624;26.276;2023-09-19T02:58:17;100065.63;;;16.15;69.42
74958;BME280;63741;42.624;26.276;2023-09-19T03:00:46;100065.06;;;16.21;68.87
74958;BME280;63741;42.624;26.276;2023-09-19T03:03:15;100065.59;;;16.25;69.17
74958;BME280;63741;42.624;26.276;2023-09-19T03:05:45;100060.16;;;16.07;69.42
74958;BME280;63741;42.624;26.276;2023-09-19T03:08:16;100056.06;;;16.22;68.56
74958;BME280;63741;42.624;26.276;2023-09-19T03:10:46;100055.78;;;16.15;68.82
74958;BME280;63741;42.624;26.276;2023-09-19T03:13:15;100056.78;;;16.14;68.88
74958;BME280;63741;42.624;26.276;2023-09-19T03:15:42;100044.56;;;16.02;69.45
74958;BME280;63741;42.624;26.276;2023-09-19T03:18:22;100049.03;;;16.21;68.61
74958;BME280;63741;42.624;26.276;2023-09-19T03:20:54;100052.66;;;16.20;69.04
74958;BME280;63741;42.624;26.276;2023-09-19T03:23:28;100051.03;;;16.09;68.56
74958;BME280;63741;42.624;26.276;2023-09-19T03:25:55;100049.41;;;16.36;68.20
74958;BME280;63741;42.624;26.276;2023-09-19T03:28:23;100043.63;;;16.40;67.64
74958;BME280;63741;42.624;26.276;2023-09-19T03:31:02;100042.19;;;16.09;68.76
74958;BME280;63741;42.624;26.276;2023-09-19T03:33:31;100044.03;;;15.99;69.41
74958;BME280;63741;42.624;26.276;2023-09-19T03:36:02;100037.13;;;16.06;69.27
74958;BME280;63741;42.624;26.276;2023-09-19T03:38:32;100036.47;;;15.84;71.42
74958;BME280;63741;42.624;26.276;2023-09-19T03:41:02;100035.06;;;15.71;71.02
74958;BME280;63741;42.624;26.276;2023-09-19T03:43:29;100036.34;;;15.76;70.78
74958;BME280;63741;42.624;26.276;2023-09-19T03:45:56;100037.59;;;15.91;69.25
74958;BME280;63741;42.624;26.276;2023-09-19T03:48:24;100040.63;;;16.06;69.25
74958;BME280;63741;42.624;26.276;2023-09-19T03:50:51;100044.13;;;16.16;68.54
74958;BME280;63741;42.624;26.276;2023-09-19T03:53:19;100041.44;;;16.26;67.95
74958;BME280;63741;42.624;26.276;2023-09-19T03:55:46;100045.47;;;16.40;67.26
74958;BME280;63741;42.624;26.276;2023-09-19T03:58:13;100044.56;;;16.12;67.77
74958;BME280;63741;42.624;26.276;2023-09-19T04:00:40;100046.72;;;15.99;68.36
74958;BME280;63741;42.624;26.276;2023-09-19T04:03:07;100048.41;;;15.90;67.71
74958;BME280;63741;42.624;26.276;2023-09-19T04:05:35;100041.34;;;16.08;67.59
74958;BME280;63741;42.624;26.276;2023-09-19T04:08:02;100047.13;;;16.04;68.39
74958;BME280;63741;42.624;26.276;2023-09-19T04:10:34;100053.78;;;16.27;67.98
74958;BME280;63741;42.624;26.276;2023-09-19T04:13:10;100049.22;;;16.00;69.03
74958;BME280;63741;42.624;26.276;2023-09-19T04:15:37;100061.03;;;16.45;68.37
74958;BME280;63741;42.624;26.276;2023-09-19T04:18:07;100061.50;;;16.30;68.18
74958;BME280;63741;42.624;26.276;2023-09-19T04:20:34;100066.41;;;16.35;68.98
74958;BME280;63741;42.624;26.276;2023-09-19T04:23:01;100066.50;;;16.53;68.38
74958;BME280;63741;42.624;26.276;2023-09-19T04:25:29;100061.59;;;16.48;68.57
74958;BME280;63741;42.624;26.276;2023-09-19T04:27:56;100064.94;;;16.50;68.44
74958;BME280;63741;42.624;26.276;2023-09-19T04:30:23;100059.50;;;16.42;68.41
74958;BME280;63741;42.624;26.276;2023-09-19T04:32:49;100060.81;;;16.28;69.02
74958;BME280;63741;42.624;26.276;2023-09-19T04:35:18;100059.66;;;16.40;69.06
74958;BME280;63741;42.624;26.276;2023-09-19T04:37:45;100063.56;;;16.46;68.39
74958;BME280;63741;42.624;26.276;2023-09-19T04:40:12;100060.50;;;16.68;67.66
74958;BME280;63741;42.624;26.276;2023-09-19T04:42:40;100059.44;;;16.52;68.27
74958;BME280;63741;42.624;26.276;2023-09-19T04:45:08;100063.06;;;16.70;68.17
74958;BME280;63741;42.624;26.276;2023-09-19T04:47:37;100059.81;;;16.66;68.35
74958;BME280;63741;42.624;26.276;2023-09-19T04:50:07;100066.94;;;16.38;69.44
74958;BME280;63741;42.624;26.276;2023-09-19T04:52:42;100058.28;;;16.64;68.95
74958;BME280;63741;42.624;26.276;2023-09-19T04:55:15;100063.22;;;17.14;67.52
74958;BME280;63741;42.624;26.276;2023-09-19T04:57:46;100052.50;;;17.41;66.89
74958;BME280;63741;42.624;26.276;2023-09-19T05:00:15;100053.16;;;17.08;67.93
74958;BME280;63741;42.624;26.276;2023-09-19T05:02:44;100048.75;;;17.16;68.09
74958;BME280;63741;42.624;26.276;2023-09-19T05:05:11;100058.53;;;17.26;67.92
74958;BME280;63741;42.624;26.276;2023-09-19T05:07:40;100054.31;;;17.23;68.56
74958;BME280;63741;42.624;26.276;2023-09-19T05:10:07;100059.38;;;17.44;67.96
74958;BME280;63741;42.624;26.276;2023-09-19T05:12:35;100065.72;;;17.43;68.26
74958;BME280;63741;42.624;26.276;2023-09-19T05:15:06;100055.94;;;17.69;67.71
74958;BME280;63741;42.624;26.276;2023-09-19T05:17:36;100059.97;;;17.91;66.57
74958;BME280;63741;42.624;26.276;2023-09-19T05:20:03;100060.00;;;17.56;68.11
74958;BME280;63741;42.624;26.276;2023-09-19T05:22:59;100057.22;;;18.01;66.36
74958;BME280;63741;42.624;26.276;2023-09-19T05:25:30;100057.34;;;18.17;65.62
74958;BME280;63741;42.624;26.276;2023-09-19T05:27:58;100051.91;;;18.09;66.04
74958;BME280;63741;42.624;26.276;2023-09-19T05:30:26;100058.84;;;18.20;65.60
74958;BME280;63741;42.624;26.276;2023-09-19T05:32:55;100054.47;;;17.93;67.48
74958;BME280;63741;42.624;26.276;2023-09-19T05:35:24;100054.09;;;17.88;67.56
74958;BME280;63741;42.624;26.276;2023-09-19T05:37:51;100055.97;;;18.13;67.54
74958;BME280;63741;42.624;26.276;2023-09-19T05:40:19;100053.28;;;18.48;65.72
74958;BME280;63741;42.624;26.276;2023-09-19T05:42:47;100056.53;;;18.25;66.39
74958;BME280;63741;42.624;26.276;2023-09-19T05:45:14;100056.16;;;18.20;66.49
74958;BME280;63741;42.624;26.276;2023-09-19T05:47:41;100058.78;;;18.38;66.47
74958;BME280;63741;42.624;26.276;2023-09-19T05:50:09;100053.50;;;18.54;65.88
74958;BME280;63741;42.624;26.276;2023-09-19T05:52:37;100059.13;;;18.69;64.58
74958;BME280;63741;42.624;26.276;2023-09-19T05:55:05;100050.53;;;18.57;64.76
74958;BME280;63741;42.624;26.276;2023-09-19T05:57:34;100052.22;;;19.01;63.37
74958;BME280;63741;42.624;26.276;2023-09-19T06:00:01;100060.72;;;18.88;64.42
74958;BME280;63741;42.624;26.276;2023-09-19T06:02:37;100060.69;;;19.30;62.32
74958;BME280;63741;42.624;26.276;2023-09-19T06:05:06;100054.09;;;19.16;63.04
74958;BME280;63741;42.624;26.276;2023-09-19T06:07:33;100057.81;;;19.15;63.34
74958;BME280;63741;42.624;26.276;2023-09-19T06:10:04;100056.16;;;19.31;62.13
74958;BME280;63741;42.624;26.276;2023-09-19T06:12:44;100057.53;;;18.92;63.93
74958;BME280;63741;42.624;26.276;2023-09-19T06:15:15;100064.50;;;19.11;62.70
74958;BME280;63741;42.624;26.276;2023-09-19T06:17:50;100066.41;;;19.43;61.94
74958;BME280;63741;42.624;26.276;2023-09-19T06:20:17;100060.09;;;19.69;60.92
74958;BME280;63741;42.624;26.276;2023-09-19T06:22:45;100053.84;;;19.68;60.66
74958;BME280;63741;42.624;26.276;2023-09-19T06:25:13;100057.72;;;19.99;59.69
74958;BME280;63741;42.624;26.276;2023-09-19T06:27:47;100053.53;;;19.88;59.15
74958;BME280;63741;42.624;26.276;2023-09-19T06:30:15;100059.22;;;20.01;59.02
74958;BME280;63741;42.624;26.276;2023-09-19T06:32:41;100056.19;;;20.12;59.41
74958;BME280;63741;42.624;26.276;2023-09-19T06:35:13;100054.81;;;20.25;59.21
74958;BME280;63741;42.624;26.276;2023-09-19T06:37:42;100055.97;;;20.38;59.36
74958;BME280;63741;42.624;26.276;2023-09-19T06:40:13;100062.56;;;20.83;57.88
74958;BME280;63741;42.624;26.276;2023-09-19T06:42:45;100053.31;;;20.86;56.77
74958;BME280;63741;42.624;26.276;2023-09-19T06:45:13;100052.47;;;20.85;56.51
74958;BME280;63741;42.624;26.276;2023-09-19T06:47:45;100051.78;;;20.91;56.63
74958;BME280;63741;42.624;26.276;2023-09-19T06:50:19;100057.75;;;21.02;55.68
74958;BME280;63741;42.624;26.276;2023-09-19T06:52:50;100050.94;;;21.22;54.83
74958;BME280;63741;42.624;26.276;2023-09-19T06:55:19;100060.84;;;21.53;54.45
74958;BME280;63741;42.624;26.276;2023-09-19T06:57:47;100060.66;;;21.54;55.04
74958;BME280;63741;42.624;26.276;2023-09-19T07:00:16;100053.78;;;21.75;55.25
74958;BME280;63741;42.624;26.276;2023-09-19T07:02:53;100052.69;;;21.84;54.64
74958;BME280;63741;42.624;26.276;2023-09-19T07:05:21;100050.09;;;21.90;54.81
74958;BME280;63741;42.624;26.276;2023-09-19T07:07:48;100054.69;;;22.05;53.63
74958;BME280;63741;42.624;26.276;2023-09-19T07:10:16;100057.72;;;22.25;53.76
74958;BME280;63741;42.624;26.276;2023-09-19T07:12:43;100054.09;;;22.32;52.08
74958;BME280;63741;42.624;26.276;2023-09-19T07:15:10;100062.75;;;22.42;51.65
74958;BME280;63741;42.624;26.276;2023-09-19T07:17:37;100052.88;;;22.50;52.27
74958;BME280;63741;42.624;26.276;2023-09-19T07:20:04;100057.91;;;22.82;52.40
74958;BME280;63741;42.624;26.276;2023-09-19T07:22:34;100061.81;;;22.94;51.48
74958;BME280;63741;42.624;26.276;2023-09-19T07:25:03;100052.31;;;22.99;51.64
74958;BME280;63741;42.624;26.276;2023-09-19T07:27:30;100054.59;;;23.16;51.25
74958;BME280;63741;42.624;26.276;2023-09-19T07:29:57;100055.47;;;23.38;51.45
74958;BME280;63741;42.624;26.276;2023-09-19T07:32:24;100051.72;;;23.39;50.72
74958;BME280;63741;42.624;26.276;2023-09-19T07:34:51;100044.13;;;23.64;49.33
74958;BME280;63741;42.624;26.276;2023-09-19T07:37:18;100042.72;;;23.68;48.91
74958;BME280;63741;42.624;26.276;2023-09-19T07:39:45;100040.81;;;23.90;48.51
74958;BME280;63741;42.624;26.276;2023-09-19T07:42:12;100035.81;;;23.87;48.30
74958;BME280;63741;42.624;26.276;2023-09-19T07:44:44;100031.03;;;24.17;47.53
74958;BME280;63741;42.624;26.276;2023-09-19T07:47:14;100036.69;;;24.23;46.47
74958;BME280;63741;42.624;26.276;2023-09-19T07:49:41;100033.78;;;24.24;44.46
74958;BME280;63741;42.624;26.276;2023-09-19T07:52:09;100029.72;;;24.07;44.63
74958;BME280;63741;42.624;26.276;2023-09-19T07:54:37;100030.66;;;24.49;44.88
74958;BME280;63741;42.624;26.276;2023-09-19T07:57:05;100033.72;;;24.45;44.55
74958;BME280;63741;42.624;26.276;2023-09-19T07:59:32;100026.75;;;24.58;44.58
74958;BME280;63741;42.624;26.276;2023-09-19T08:01:59;100031.53;;;24.56;44.51
74958;BME280;63741;42.624;26.276;2023-09-19T08:04:31;100030.53;;;25.11;44.68
74958;BME280;63741;42.624;26.276;2023-09-19T08:07:06;100027.88;;;25.38;44.08
74958;BME280;63741;42.624;26.276;2023-09-19T08:09:33;100028.25;;;25.15;43.73
74958;BME280;63741;42.624;26.276;2023-09-19T08:12:00;100019.56;;;24.85;43.98
74958;BME280;63741;42.624;26.276;2023-09-19T08:14:32;100020.16;;;24.74;44.91
74958;BME280;63741;42.624;26.276;2023-09-19T08:17:04;100016.44;;;24.81;45.46
74958;BME280;63741;42.624;26.276;2023-09-19T08:19:35;100001.47;;;24.85;45.18
74958;BME280;63741;42.624;26.276;2023-09-19T08:22:06;99998.13;;;24.83;45.56
74958;BME280;63741;42.624;26.276;2023-09-19T08:24:36;100004.19;;;24.92;45.38
74958;BME280;63741;42.624;26.276;2023-09-19T08:27:04;99995.88;;;24.87;45.17
74958;BME280;63741;42.624;26.276;2023-09-19T08:29:32;99996.25;;;24.90;44.51
74958;BME280;63741;42.624;26.276;2023-09-19T08:31:59;99996.88;;;24.86;44.41
74958;BME280;63741;42.624;26.276;2023-09-19T08:34:26;99995.94;;;25.13;44.42
74958;BME280;63741;42.624;26.276;2023-09-19T08:36:54;100002.06;;;25.55;44.37
74958;BME280;63741;42.624;26.276;2023-09-19T08:39:25;99987.28;;;25.91;43.25
74958;BME280;63741;42.624;26.276;2023-09-19T08:41:59;99983.53;;;25.99;43.01
74958;BME280;63741;42.624;26.276;2023-09-19T08:44:27;99982.47;;;26.00;42.79
74958;BME280;63741;42.624;26.276;2023-09-19T08:47:11;99992.50;;;25.99;41.96
74958;BME280;63741;42.624;26.276;2023-09-19T08:50:01;99984.81;;;25.76;42.79
74958;BME280;63741;42.624;26.276;2023-09-19T08:52:41;99987.50;;;25.83;42.68
74958;BME280;63741;42.624;26.276;2023-09-19T08:55:14;99991.66;;;25.92;42.35
74958;BME280;63741;42.624;26.276;2023-09-19T08:57:52;99974.53;;;25.71;42.08
74958;BME280;63741;42.624;26.276;2023-09-19T09:00:24;99975.38;;;26.05;41.13
74958;BME280;63741;42.624;26.276;2023-09-19T09:02:58;99976.84;;;25.55;41.46
74958;BME280;63741;42.624;26.276;2023-09-19T09:05:27;99966.22;;;25.73;41.92
74958;BME280;63741;42.624;26.276;2023-09-19T09:07:55;99970.16;;;26.17;40.87
74958;BME280;63741;42.624;26.276;2023-09-19T09:10:23;99964.69;;;26.43;40.57
74958;BME280;63741;42.624;26.276;2023-09-19T09:12:51;99974.19;;;26.66;39.54
74958;BME280;63741;42.624;26.276;2023-09-19T09:15:19;99962.94;;;26.42;41.05
74958;BME280;63741;42.624;26.276;2023-09-19T09:17:51;99960.41;;;26.67;40.60
74958;BME280;63741;42.624;26.276;2023-09-19T09:20:22;99966.75;;;26.86;40.70
74958;BME280;63741;42.624;26.276;2023-09-19T09:22:53;99959.44;;;26.49;40.43
74958;BME280;63741;42.624;26.276;2023-09-19T09:25:22;99950.59;;;26.66;40.61
74958;BME280;63741;42.624;26.276;2023-09-19T09:27:59;99957.53;;;26.94;39.70
74958;BME280;63741;42.624;26.276;2023-09-19T09:30:35;99950.41;;;27.00;40.85
74958;BME280;63741;42.624;26.276;2023-09-19T09:33:13;99947.91;;;26.60;41.14
74958;BME280;63741;42.624;26.276;2023-09-19T09:35:53;99950.91;;;26.32;41.82
74958;BME280;63741;42.624;26.276;2023-09-19T09:38:27;99949.75;;;26.66;41.93
74958;BME280;63741;42.624;26.276;2023-09-19T09:40:55;99955.47;;;26.89;41.59
74958;BME280;63741;42.624;26.276;2023-09-19T09:43:36;99951.25;;;26.62;40.20
74958;BME280;63741;42.624;26.276;2023-09-19T09:46:19;99957.38;;;26.82;40.31
74958;BME280;63741;42.624;26.276;2023-09-19T09:51:42;99941.63;;;26.59;40.78
74958;BME280;63741;42.624;26.276;2023-09-19T09:54:29;99945.13;;;27.05;40.44
74958;BME280;63741;42.624;26.276;2023-09-19T09:57:11;99933.84;;;27.08;40.49
74958;BME280;63741;42.624;26.276;2023-09-19T09:59:47;99945.34;;;27.10;41.67
74958;BME280;63741;42.624;26.276;2023-09-19T10:02:18;99932.03;;;27.02;41.46
74958;BME280;63741;42.624;26.276;2023-09-19T10:04:52;99928.19;;;27.41;39.81
74958;BME280;63741;42.624;26.276;2023-09-19T10:07:30;99925.94;;;27.38;39.56
74958;BME280;63741;42.624;26.276;2023-09-19T10:10:06;99930.47;;;26.81;41.09
74958;BME280;63741;42.624;26.276;2023-09-19T10:12:47;99932.63;;;27.04;39.48
74958;BME280;63741;42.624;26.276;2023-09-19T10:15:18;99921.66;;;27.24;39.75
74958;BME280;63741;42.624;26.276;2023-09-19T10:17:54;99923.41;;;27.36;39.50
74958;BME280;63741;42.624;26.276;2023-09-19T10:20:26;99924.13;;;27.50;39.47
74958;BME280;63741;42.624;26.276;2023-09-19T10:23:08;99925.09;;;27.87;40.00
74958;BME280;63741;42.624;26.276;2023-09-19T10:25:39;99921.59;;;28.17;39.07
74958;BME280;63741;42.624;26.276;2023-09-19T10:28:08;99911.66;;;27.92;38.49
74958;BME280;63741;42.624;26.276;2023-09-19T10:30:43;99908.63;;;28.01;37.80
74958;BME280;63741;42.624;26.276;2023-09-19T10:33:21;99907.81;;;28.00;38.58
74958;BME280;63741;42.624;26.276;2023-09-19T10:35:50;99895.47;;;28.16;38.05
74958;BME280;63741;42.624;26.276;2023-09-19T10:38:25;99902.75;;;28.40;37.75
74958;BME280;63741;42.624;26.276;2023-09-19T10:40:54;99892.84;;;28.46;37.36
74958;BME280;63741;42.624;26.276;2023-09-19T10:43:31;99893.81;;;28.33;37.13
74958;BME280;63741;42.624;26.276;2023-09-19T10:46:06;99886.50;;;27.79;37.96
74958;BME280;63741;42.624;26.276;2023-09-19T10:48:34;99889.75;;;27.87;37.83
74958;BME280;63741;42.624;26.276;2023-09-19T10:51:10;99883.00;;;28.08;37.84
74958;BME280;63741;42.624;26.276;2023-09-19T10:53:53;99880.88;;;28.29;37.35
74958;BME280;63741;42.624;26.276;2023-09-19T10:56:32;99876.88;;;27.94;37.09
74958;BME280;63741;42.624;26.276;2023-09-19T10:59:15;99875.41;;;28.35;35.85
74958;BME280;63741;42.624;26.276;2023-09-19T11:04:38;99866.34;;;29.25;36.23
74958;BME280;63741;42.624;26.276;2023-09-19T11:07:10;99858.38;;;29.00;34.83
74958;BME280;63741;42.624;26.276;2023-09-19T11:09:53;99854.44;;;28.66;35.91
74958;BME280;63741;42.624;26.276;2023-09-19T11:26:45;99845.78;;;28.57;36.57
74958;BME280;63741;42.624;26.276;2023-09-19T11:29:24;99837.84;;;28.56;34.93
74958;BME280;63741;42.624;26.276;2023-09-19T11:31:52;99842.53;;;28.37;34.48
74958;BME280;63741;42.624;26.276;2023-09-19T11:40:31;99831.56;;;28.85;35.82
74958;BME280;63741;42.624;26.276;2023-09-19T11:42:59;99829.50;;;29.23;34.31
74958;BME280;63741;42.624;26.276;2023-09-19T11:46:09;99824.16;;;29.16;34.66
74958;BME280;63741;42.624;26.276;2023-09-19T11:48:35;99817.19;;;29.20;34.63
74958;BME280;63741;42.624;26.276;2023-09-19T11:51:12;99810.06;;;28.65;34.96
74958;BME280;63741;42.624;26.276;2023-09-19T11:53:46;99813.59;;;28.54;35.40
74958;BME280;63741;42.624;26.276;2023-09-19T11:56:18;99822.84;;;28.53;35.50
74958;BME280;63741;42.624;26.276;2023-09-19T11:58:49;99808.16;;;29.08;34.41
74958;BME280;63741;42.624;26.276;2023-09-19T12:01:22;99810.50;;;29.51;33.69
74958;BME280;63741;42.624;26.276;2023-09-19T12:03:54;99803.97;;;29.87;32.96
74958;BME280;63741;42.624;26.276;2023-09-19T12:06:23;99803.09;;;29.58;33.25
74958;BME280;63741;42.624;26.276;2023-09-19T12:08:50;99800.72;;;29.62;32.68
74958;BME280;63741;42.624;26.276;2023-09-19T12:11:17;99792.44;;;29.57;33.39
74958;BME280;63741;42.624;26.276;2023-09-19T12:13:45;99799.75;;;29.68;32.97
74958;BME280;63741;42.624;26.276;2023-09-19T12:16:13;99793.41;;;29.91;32.17
74958;BME280;63741;42.624;26.276;2023-09-19T12:18:46;99793.28;;;29.86;32.35
74958;BME280;63741;42.624;26.276;2023-09-19T12:21:21;99779.97;;;29.26;33.09
74958;BME280;63741;42.624;26.276;2023-09-19T12:24:14;99785.31;;;29.56;32.29
74958;BME280;63741;42.624;26.276;2023-09-19T12:26:46;99778.44;;;29.30;32.82
74958;BME280;63741;42.624;26.276;2023-09-19T12:29:20;99778.38;;;29.88;31.85
74958;BME280;63741;42.624;26.276;2023-09-19T12:31:57;99781.72;;;29.67;32.38
74958;BME280;63741;42.624;26.276;2023-09-19T12:34:26;99772.63;;;29.61;31.37
74958;BME280;63741;42.624;26.276;2023-09-19T12:39:43;99768.25;;;29.25;32.40
74958;BME280;63741;42.624;26.276;2023-09-19T12:42:19;99768.47;;;29.24;33.32
74958;BME280;63741;42.624;26.276;2023-09-19T12:44:50;99768.84;;;29.04;32.81
74958;BME280;63741;42.624;26.276;2023-09-19T12:47:24;99760.53;;;29.45;33.23
74958;BME280;63741;42.624;26.276;2023-09-19T12:50:11;99757.47;;;29.18;31.68
74958;BME280;63741;42.624;26.276;2023-09-19T12:52:47;99759.75;;;29.85;32.61
74958;BME280;63741;42.624;26.276;2023-09-19T12:55:27;99758.44;;;29.88;31.79
74958;BME280;63741;42.624;26.276;2023-09-19T13:00:48;99745.56;;;29.71;31.70
74958;BME280;63741;42.624;26.276;2023-09-19T13:03:28;99750.91;;;30.07;32.11
74958;BME280;63741;42.624;26.276;2023-09-19T13:06:02;99740.38;;;29.46;31.46
74958;BME280;63741;42.624;26.276;2023-09-19T13:08:32;99734.38;;;29.85;31.68
74958;BME280;63741;42.624;26.276;2023-09-19T13:13:49;99723.38;;;30.37;31.26
74958;BME280;63741;42.624;26.276;2023-09-19T13:16:21;99730.91;;;30.46;30.77
74958;BME280;63741;42.624;26.276;2023-09-19T13:18:52;99726.09;;;30.08;32.13
74958;BME280;63741;42.624;26.276;2023-09-19T13:21:30;99727.66;;;29.76;32.09
74958;BME280;63741;42.624;26.276;2023-09-19T13:24:24;99725.72;;;29.88;31.24
74958;BME280;63741;42.624;26.276;2023-09-19T13:26:55;99725.69;;;29.59;31.90
74958;BME280;63741;42.624;26.276;2023-09-19T13:29:23;99726.16;;;29.96;31.23
74958;BME280;63741;42.624;26.276;2023-09-19T13:31:51;99716.09;;;29.57;31.15
74958;BME280;63741;42.624;26.276;2023-09-19T13:34:20;99712.69;;;29.38;31.52
74958;BME280;63741;42.624;26.276;2023-09-19T13:36:47;99715.19;;;29.80;30.70
74958;BME280;63741;42.624;26.276;2023-09-19T13:39:16;99717.97;;;29.96;31.39
74958;BME280;63741;42.624;26.276;2023-09-19T13:41:49;99719.34;;;30.11;30.27
74958;BME280;63741;42.624;26.276;2023-09-19T13:44:16;99714.75;;;30.28;30.87